Time;durP1;ratioP1;P1;durP2;ratioP2;P2;SDS_P1;SDS_P2;PMS_P1;PMS_P2;Temp;Humidity;BMP_temperature;BMP_pressure;BME280_temperature;BME280_humidity;BME280_pressure;Samples;Min_cycle;Max_cycle;Signal;HPM_P1;HPM_P2
2021/11/19 00:01:33;;;;;;;20.50;8.90;;;17.00;97.60;;;17.09;49.36;102500.47;4906506;28;97402;-42
2021/11/19 00:03:59;;;;;;;16.23;8.83;;;17.00;97.50;;;17.06;49.67;102495.22;4908252;28;98790;-42
2021/11/19 00:06:25;;;;;;;17.47;8.90;;;16.90;97.70;;;17.09;49.60;102499.59;4918896;28;98837;-43
2021/11/19 00:08:52;;;;;;;17.77;9.00;;;17.00;97.60;;;17.07;49.71;102496.09;4906410;28;98183;-43
2021/11/19 00:11:28;;;;;;;14.40;8.73;;;16.90;97.80;;;17.02;49.83;102487.38;4907149;28;97722;-42
2021/11/19 00:13:57;;;;;;;16.43;8.37;;;16.90;98.10;;;16.99;49.73;102487.50;4923286;28;98640;-43
2021/11/19 00:16:26;;;;;;;13.03;8.00;;;16.70;98.20;;;17.00;50.04;102489.22;4902069;28;99767;-42
2021/11/19 00:18:54;;;;;;;15.43;8.53;;;16.80;98.10;;;17.05;50.07;102493.47;4908940;28;98896;-42
2021/11/19 00:21:21;;;;;;;22.30;9.17;;;16.90;97.90;;;17.01;49.80;102490.97;4905284;28;99479;-42
2021/11/19 00:23:48;;;;;;;19.37;9.80;;;16.90;98.20;;;16.92;50.05;102485.03;4911506;28;99077;-43
2021/11/19 00:26:16;;;;;;;10.93;6.83;;;16.70;98.20;;;16.92;50.28;102482.38;4906515;28;98277;-43
2021/11/19 00:28:43;;;;;;;14.93;9.27;;;16.80;98.10;;;16.99;49.79;102491.03;4909126;28;97785;-42
2021/11/19 00:31:11;;;;;;;15.37;9.80;;;16.90;98.00;;;16.99;50.30;102487.50;4911095;28;98474;-41
2021/11/19 00:33:37;;;;;;;13.77;8.53;;;16.90;98.10;;;16.95;50.30;102492.94;4912055;28;98161;-44
2021/11/19 00:36:09;;;;;;;15.40;9.13;;;16.80;98.20;;;16.94;50.46;102495.66;4909804;28;97896;-41
2021/11/19 00:38:37;;;;;;;16.20;10.10;;;16.90;98.10;;;16.98;50.09;102501.75;4906361;28;99864;-43
2021/11/19 00:41:06;;;;;;;17.77;9.97;;;16.90;97.80;;;17.03;50.35;102489.13;4917756;28;98230;-42
2021/11/19 00:43:33;;;;;;;17.33;9.30;;;16.90;97.80;;;17.04;50.05;102491.72;4904775;28;98326;-45
2021/11/19 00:45:59;;;;;;;17.07;10.07;;;17.00;97.80;;;17.06;49.95;102489.00;4903321;28;97967;-41
2021/11/19 00:48:30;;;;;;;9.60;5.70;;;17.00;97.80;;;17.00;50.10;102490.09;4919353;28;99168;-43
2021/11/19 00:51:11;;;;;;;9.53;4.83;;;16.90;97.80;;;17.04;49.54;102480.19;4908683;28;96999;-42
2021/11/19 00:53:40;;;;;;;17.63;10.00;;;17.00;97.60;;;16.98;50.42;102491.09;4897085;28;97303;-43
2021/11/19 00:56:06;;;;;;;16.23;9.20;;;16.90;98.30;;;16.99;50.34;102492.81;4906935;28;97708;-43
2021/11/19 00:58:32;;;;;;;13.17;8.83;;;16.80;98.20;;;17.02;49.99;102487.38;4898570;28;103756;-42
2021/11/19 01:01:06;;;;;;;13.40;7.80;;;16.90;98.30;;;17.04;49.78;102483.72;4913375;28;97165;-42
2021/11/19 01:03:33;;;;;;;18.47;10.57;;;17.00;97.80;;;17.02;50.09;102495.38;4908476;28;100309;-45
2021/11/19 01:06:00;;;;;;;16.33;9.87;;;16.90;98.10;;;16.90;50.73;102492.19;4934222;28;97648;-42
2021/11/19 01:08:27;;;;;;;19.20;9.97;;;16.80;98.40;;;16.94;50.11;102491.19;4920958;28;98263;-42
2021/11/19 01:10:57;;;;;;;18.13;9.33;;;16.80;98.20;;;16.92;50.34;102487.72;4944075;28;96838;-43
2021/11/19 01:13:24;;;;;;;11.30;8.57;;;16.80;98.40;;;16.88;50.35;102491.38;4927921;28;98848;-42
2021/11/19 01:15:55;;;;;;;19.07;10.30;;;16.80;98.50;;;16.95;50.15;102492.94;4931981;28;97411;-45
2021/11/19 01:18:40;;;;;;;17.27;10.10;;;16.80;98.20;;;16.93;50.51;102494.78;4950349;28;100241;-42
2021/11/19 01:21:14;;;;;;;16.73;9.93;;;16.80;98.50;;;16.99;50.33;102501.69;4946642;28;97729;-42
2021/11/19 01:23:40;;;;;;;18.43;11.00;;;16.90;98.00;;;17.03;50.29;102505.13;4924133;28;100705;-42
2021/11/19 01:26:19;;;;;;;18.60;10.93;;;17.00;97.80;;;17.06;49.97;102510.34;4933226;28;100403;-45
2021/11/19 01:28:49;;;;;;;21.93;11.80;;;17.00;97.80;;;17.10;49.98;102512.00;4939324;28;97274;-42
2021/11/19 01:31:26;;;;;;;17.33;10.20;;;17.00;97.70;;;17.15;49.83;102507.38;4929681;28;97199;-46
2021/11/19 01:33:52;;;;;;;12.63;7.00;;;17.10;97.70;;;17.08;49.89;102508.53;4940232;28;97814;-42
2021/11/19 01:36:21;;;;;;;17.33;10.53;;;17.00;97.90;;;17.15;49.55;102499.38;4928175;28;98580;-43
2021/11/19 01:38:48;;;;;;;16.57;11.57;;;17.10;97.70;;;17.18;49.79;102515.28;4935494;28;98370;-41
2021/11/19 01:41:38;;;;;;;15.77;10.00;;;17.10;97.70;;;17.15;50.00;102510.03;4936122;28;97369;-42
2021/11/19 01:44:19;;;;;;;16.60;11.93;;;17.00;97.90;;;17.06;50.60;102510.34;4927668;28;96855;-44
2021/11/19 01:46:52;;;;;;;19.27;11.17;;;17.00;98.60;;;17.13;49.74;102517.22;4931137;28;104662;-44
2021/11/19 01:49:21;;;;;;;16.60;11.43;;;17.00;97.80;;;17.11;49.98;102508.41;4943982;28;97140;-44
2021/11/19 01:52:06;;;;;;;15.67;11.10;;;17.00;97.80;;;17.09;50.00;102513.81;4928078;28;97790;-42
2021/11/19 01:54:42;;;;;;;16.50;10.97;;;17.00;98.10;;;17.09;50.23;102515.59;4915187;28;98225;-43
2021/11/19 01:57:22;;;;;;;19.57;11.67;;;17.00;98.10;;;17.02;50.60;102514.91;4931546;28;97458;-44
2021/11/19 02:00:00;;;;;;;17.07;11.00;;;16.90;98.60;;;16.93;50.67;102513.44;4935155;28;97025;-43
2021/11/19 02:02:34;;;;;;;5.63;4.70;;;16.70;99.30;;;16.82;50.89;102517.38;4929627;28;97496;-43
2021/11/19 02:05:19;;;;;;;16.00;10.97;;;16.50;99.40;;;16.71;51.17;102515.03;4934896;28;97078;-44
2021/11/19 02:07:51;;;;;;;18.73;11.23;;;16.30;99.90;;;16.59;52.04;102515.41;4931722;28;101988;-41
2021/11/19 02:10:25;;;;;;;13.03;8.80;;;16.30;99.90;;;16.54;51.74;102518.22;4914782;28;102501;-43
2021/11/19 02:13:34;;;;;;;14.63;11.87;;;16.20;99.90;;;16.52;51.87;102514.72;4952010;28;96785;-43
2021/11/19 02:16:09;;;;;;;17.83;11.30;;;16.20;99.90;;;16.43;53.39;102524.78;4937046;28;97442;-42
2021/11/19 02:19:00;;;;;;;8.53;6.57;;;16.20;99.90;;;16.40;52.38;102519.56;4946463;28;102730;-42
2021/11/19 02:21:38;;;;;;;9.27;6.23;;;16.10;99.90;;;16.45;51.94;102517.63;4919855;28;98281;-42
2021/11/19 02:24:13;;;;;;;11.60;8.13;;;16.20;99.90;;;16.46;52.16;102525.56;4931859;28;97188;-43
2021/11/19 02:26:51;;;;;;;16.00;12.33;;;16.20;99.90;;;16.40;52.90;102522.22;4924151;28;98252;-42
2021/11/19 02:29:17;;;;;;;15.37;10.37;;;16.10;99.90;;;16.32;52.32;102515.31;4922477;28;100410;-43
2021/11/19 02:31:54;;;;;;;17.17;11.33;;;16.00;99.90;;;16.34;52.34;102521.47;4939706;28;96917;-43
2021/11/19 02:34:23;;;;;;;15.47;10.93;;;16.00;99.90;;;16.38;52.22;102522.28;4946134;28;97050;-42
2021/11/19 02:37:28;;;;;;;15.00;11.63;;;16.00;99.90;;;16.28;53.07;102534.09;4933764;28;97067;-43
2021/11/19 02:40:07;;;;;;;21.47;13.10;;;15.90;99.90;;;16.18;53.59;102520.19;4922118;28;100492;-42
2021/11/19 02:42:39;;;;;;;7.83;4.77;;;15.80;99.90;;;16.21;52.65;102517.47;4927637;28;102713;-42
2021/11/19 02:45:17;;;;;;;18.40;12.50;;;15.80;99.90;;;16.18;53.10;102522.84;4942405;28;96832;-43
2021/11/19 02:47:44;;;;;;;9.33;7.90;;;15.70;99.90;;;16.17;53.15;102515.78;4928521;28;97599;-42
2021/11/19 02:50:12;;;;;;;17.10;12.03;;;15.80;99.90;;;16.15;53.27;102520.28;4915293;28;102373;-42
2021/11/19 02:52:42;;;;;;;13.70;9.57;;;15.70;99.90;;;16.11;54.96;102517.78;4930506;28;99021;-42
2021/11/19 02:55:23;;;;;;;20.20;14.27;;;15.70;99.90;;;15.99;54.25;102522.53;4935151;28;97120;-44
2021/11/19 02:57:50;;;;;;;22.37;14.53;;;15.60;99.90;;;16.02;54.36;102518.91;4930363;28;97085;-42
2021/11/19 03:00:41;;;;;;;21.33;14.30;;;15.60;99.90;;;15.93;55.44;102524.50;4932252;28;98209;-42
2021/11/19 03:03:07;;;;;;;20.43;15.13;;;15.50;99.90;;;15.85;55.45;102529.16;4931381;28;98240;-42
2021/11/19 03:05:33;;;;;;;5.10;4.00;;;15.40;99.90;;;15.90;54.06;102521.91;4927889;28;101916;-42
2021/11/19 03:07:59;;;;;;;18.17;13.73;;;15.40;99.90;;;15.79;56.25;102524.03;4929483;28;96875;-42
2021/11/19 03:10:43;;;;;;;21.17;14.70;;;15.40;99.90;;;15.79;54.35;102516.03;4926356;28;97338;-42
2021/11/19 03:13:10;;;;;;;6.87;4.43;;;15.30;99.90;;;15.74;54.55;102518.81;4953383;28;97123;-42
2021/11/19 03:15:43;;;;;;;13.33;10.70;;;15.20;99.90;;;15.75;55.02;102510.78;4934992;28;99082;-42
2021/11/19 03:18:13;;;;;;;6.97;4.13;;;15.30;99.90;;;15.74;54.44;102508.16;4933901;28;98554;-43
2021/11/19 03:20:41;;;;;;;7.17;5.63;;;15.30;99.90;;;15.74;54.94;102506.38;4933955;28;100422;-42
2021/11/19 03:23:07;;;;;;;20.10;14.40;;;15.20;99.90;;;15.72;56.35;102510.88;4940646;28;98442;-43
2021/11/19 03:25:37;;;;;;;16.73;12.90;;;15.20;99.90;;;15.73;55.06;102504.63;4930805;28;97482;-45
2021/11/19 03:28:08;;;;;;;14.17;9.63;;;15.30;99.90;;;15.73;54.55;102496.66;4951282;28;97546;-43
2021/11/19 03:30:38;;;;;;;9.87;6.67;;;15.30;99.90;;;15.71;56.26;102498.47;4909345;28;97385;-41
2021/11/19 03:33:06;;;;;;;20.87;14.07;;;15.30;99.90;;;15.63;56.21;102489.84;4915328;28;99034;-42
2021/11/19 03:35:33;;;;;;;13.10;9.53;;;15.20;99.90;;;15.65;56.31;102493.34;4928909;28;96958;-42
2021/11/19 03:38:01;;;;;;;19.27;12.93;;;15.20;99.90;;;15.68;55.70;102493.25;4934353;28;97274;-42
2021/11/19 03:40:34;;;;;;;10.13;7.73;;;15.20;99.90;;;15.73;55.01;102493.13;4948420;28;99470;-44
2021/11/19 03:43:03;;;;;;;18.57;12.77;;;15.30;99.90;;;15.66;56.56;102499.53;4938643;28;97825;-43
2021/11/19 03:45:41;;;;;;;18.47;13.13;;;15.20;99.90;;;15.69;55.50;102505.63;4932254;28;97161;-44
2021/11/19 03:48:08;;;;;;;14.33;10.83;;;15.20;99.90;;;15.76;54.64;102499.22;4929681;28;98858;-44
2021/11/19 03:50:45;;;;;;;15.90;12.77;;;15.30;99.90;;;15.63;56.68;102496.97;4930615;28;97642;-42
2021/11/19 03:53:13;;;;;;;16.67;12.83;;;15.20;99.90;;;15.68;55.92;102493.25;4936879;28;97360;-44
2021/11/19 03:55:46;;;;;;;16.80;11.67;;;15.20;99.90;;;15.73;55.74;102493.13;4928345;28;100488;-44
2021/11/19 03:58:15;;;;;;;12.70;8.17;;;15.20;99.90;;;15.77;54.91;102493.00;4952714;28;98737;-45
2021/11/19 04:00:58;;;;;;;14.07;10.23;;;15.30;99.90;;;15.79;54.70;102484.09;4933886;28;103046;-42
2021/11/19 04:03:26;;;;;;;17.67;10.83;;;15.30;99.90;;;15.83;54.98;102485.75;4925580;28;96948;-44
2021/11/19 04:05:52;;;;;;;15.37;10.93;;;15.30;99.90;;;15.76;56.38;102491.22;4946729;28;96971;-44
2021/11/19 04:08:20;;;;;;;16.67;12.20;;;15.30;99.90;;;15.66;56.37;102500.41;4931159;28;97531;-42
2021/11/19 04:10:47;;;;;;;18.00;12.13;;;15.20;99.90;;;15.68;55.89;102493.25;4936821;28;98762;-42
2021/11/19 04:13:14;;;;;;;7.30;5.03;;;15.20;99.90;;;15.71;55.49;102490.50;4932334;28;98204;-43
2021/11/19 04:15:49;;;;;;;6.53;5.13;;;15.20;99.90;;;15.70;55.31;102502.06;4934642;28;96722;-42
2021/11/19 04:18:15;;;;;;;17.47;12.30;;;15.20;99.90;;;15.71;55.40;102495.81;4947629;28;96924;-42
2021/11/19 04:20:42;;;;;;;7.10;5.13;;;15.20;99.90;;;15.77;54.80;102501.00;4934372;28;97442;-41
2021/11/19 04:23:09;;;;;;;6.23;4.60;;;15.30;99.90;;;15.80;54.83;102502.69;4939726;28;99471;-47
2021/11/19 04:25:36;;;;;;;15.43;11.90;;;15.30;99.90;;;15.86;55.18;102499.84;4927935;28;96887;-42
2021/11/19 04:28:02;;;;;;;14.17;9.97;;;15.40;99.90;;;15.82;55.23;102513.28;4936543;28;96761;-48
2021/11/19 04:30:47;;;;;;;15.77;12.27;;;15.30;99.90;;;15.77;55.82;102506.31;4939060;28;98408;-46
2021/11/19 04:33:15;;;;;;;19.37;12.07;;;15.30;99.90;;;15.79;56.16;102511.59;4930297;28;97346;-46
2021/11/19 04:35:40;;;;;;;16.67;12.37;;;15.30;99.90;;;15.74;57.51;102509.03;4927677;28;97122;-43
2021/11/19 04:38:07;;;;;;;17.93;12.67;;;15.30;99.90;;;15.68;56.82;102509.22;4935006;28;97339;-43
2021/11/19 04:40:35;;;;;;;15.53;12.87;;;15.20;99.90;;;15.62;56.44;102512.06;4932732;28;103529;-48
2021/11/19 04:43:03;;;;;;;18.27;13.10;;;15.20;99.90;;;15.60;56.39;102510.31;4931554;28;99478;-43
2021/11/19 04:45:30;;;;;;;11.73;9.40;;;15.20;99.90;;;15.64;55.09;102506.69;4927348;28;96949;-43
2021/11/19 04:47:57;;;;;;;17.07;11.93;;;15.20;99.90;;;15.68;55.35;102518.97;4932773;28;97925;-45
2021/11/19 04:50:29;;;;;;;7.40;6.40;;;15.20;99.90;;;15.70;55.78;102518.03;4963551;28;97641;-42
2021/11/19 04:52:55;;;;;;;12.63;9.33;;;15.20;99.90;;;15.74;56.01;102514.34;4934795;28;99458;-47
2021/11/19 04:55:22;;;;;;;5.37;3.37;;;15.30;99.90;;;15.80;54.94;102502.69;4935122;28;97031;-42
2021/11/19 04:57:48;;;;;;;13.20;11.23;;;15.30;99.90;;;15.84;55.03;102504.34;4931217;28;97511;-46
2021/11/19 05:00:28;;;;;;;14.43;11.97;;;15.40;99.90;;;15.90;54.66;102512.13;4941371;28;98471;-44
2021/11/19 05:02:54;;;;;;;12.03;8.63;;;15.40;99.90;;;15.93;54.69;102513.84;4931585;28;97492;-45
2021/11/19 05:05:23;;;;;;;13.17;11.17;;;15.40;99.90;;;15.94;54.43;102510.28;4929366;28;97205;-44
2021/11/19 05:07:50;;;;;;;5.33;4.83;;;15.40;99.90;;;15.96;54.39;102511.97;4931004;28;97456;-47
2021/11/19 05:10:16;;;;;;;14.20;12.17;;;15.50;99.90;;;16.00;54.45;102504.75;4939609;28;98733;-42
2021/11/19 05:12:54;;;;;;;7.90;7.10;;;15.50;99.90;;;16.02;54.36;102508.25;4944883;28;106174;-43
2021/11/19 05:15:21;;;;;;;10.43;7.13;;;15.60;99.90;;;15.99;54.52;102503.03;4925271;28;96733;-43
2021/11/19 05:17:47;;;;;;;15.20;10.93;;;15.50;99.90;;;15.98;54.51;102509.25;4931002;28;98191;-43
2021/11/19 05:20:18;;;;;;;10.53;9.43;;;15.50;99.90;;;15.94;55.61;102500.50;4949559;28;98219;-43
2021/11/19 05:22:45;;;;;;;14.60;12.30;;;15.50;99.90;;;15.90;56.11;102497.94;4932508;28;99502;-42
2021/11/19 05:25:16;;;;;;;11.90;9.03;;;15.40;99.90;;;15.90;54.49;102497.94;4942215;28;97551;-48
2021/11/19 05:27:43;;;;;;;12.63;10.67;;;15.40;99.90;;;15.86;55.00;102506.94;4932253;28;100294;-44
2021/11/19 05:30:10;;;;;;;19.80;13.33;;;15.40;99.90;;;15.80;56.97;102496.50;4932880;28;97722;-48
2021/11/19 05:32:37;;;;;;;13.73;10.87;;;15.40;99.90;;;15.88;54.73;102500.66;4930669;28;100684;-42
2021/11/19 05:35:05;;;;;;;13.77;10.93;;;15.40;99.90;;;15.78;57.24;102499.19;4929151;28;96746;-46
2021/11/19 05:37:30;;;;;;;5.97;4.63;;;15.30;99.90;;;15.76;56.28;102496.56;4941738;28;97698;-46
2021/11/19 05:39:56;;;;;;;11.53;10.03;;;15.30;99.90;;;15.83;55.24;102491.94;4933195;28;100037;-50
2021/11/19 05:42:22;;;;;;;14.17;12.67;;;15.40;99.90;;;15.77;56.88;102497.47;4930131;28;103902;-48
2021/11/19 05:44:48;;;;;;;16.23;13.77;;;15.30;99.90;;;15.76;56.02;102495.69;4919151;28;97021;-47
2021/11/19 05:47:14;;;;;;;11.83;8.43;;;15.30;99.90;;;15.83;54.98;102496.41;4935382;28;97504;-43
2021/11/19 05:49:41;;;;;;;14.17;11.90;;;15.30;99.90;;;15.85;55.43;102494.56;4943968;28;98681;-45
2021/11/19 05:52:10;;;;;;;15.30;12.77;;;15.40;99.90;;;15.82;56.38;102505.28;4927673;28;99020;-42
2021/11/19 05:54:38;;;;;;;18.10;13.40;;;15.40;99.90;;;15.73;55.76;102507.28;4931847;28;97232;-45
2021/11/19 05:57:07;;;;;;;16.80;13.90;;;15.30;99.90;;;15.87;55.52;102503.38;4936000;28;96808;-43
2021/11/19 05:59:35;;;;;;;14.70;12.67;;;15.40;99.90;;;15.89;55.35;102507.72;4937019;28;100033;-45
2021/11/19 06:02:05;;;;;;;9.20;8.20;;;15.40;99.90;;;15.94;55.35;102495.19;4921005;28;98575;-44
2021/11/19 06:04:31;;;;;;;13.00;10.07;;;15.40;99.90;;;15.96;54.86;102503.13;4929965;28;96950;-45
2021/11/19 06:06:57;;;;;;;15.63;12.67;;;15.50;99.90;;;15.92;56.92;102507.66;4927352;28;97611;-47
2021/11/19 06:09:30;;;;;;;10.53;9.37;;;15.50;99.90;;;16.01;54.39;102506.50;4930991;28;100956;-44
2021/11/19 06:12:07;;;;;;;15.57;12.83;;;15.50;99.90;;;16.02;55.75;102508.25;4933417;28;97040;-46
2021/11/19 06:14:51;;;;;;;12.93;11.30;;;15.50;99.90;;;16.02;54.49;102508.25;4936113;28;97098;-45
2021/11/19 06:17:29;;;;;;;14.67;11.47;;;15.50;99.90;;;16.08;54.17;102499.22;4946986;28;97458;-44
2021/11/19 06:20:00;;;;;;;11.57;10.43;;;15.60;99.90;;;16.06;54.74;102504.59;4931154;28;97279;-42
2021/11/19 06:22:37;;;;;;;7.30;6.40;;;15.60;99.90;;;16.07;54.23;102511.66;4930152;28;99477;-42
2021/11/19 06:25:11;;;;;;;16.93;13.17;;;15.60;99.90;;;15.99;54.98;102513.66;4921521;28;96807;-44
2021/11/19 06:27:38;;;;;;;18.13;13.77;;;15.50;99.90;;;15.98;55.71;102522.56;4939006;28;97659;-47
2021/11/19 06:30:10;;;;;;;11.70;10.40;;;15.50;99.90;;;16.04;54.91;102511.72;4937503;28;97431;-47
2021/11/19 06:32:36;;;;;;;18.27;15.20;;;15.50;99.90;;;15.97;56.16;102519.03;4926319;28;100974;-44
2021/11/19 06:35:04;;;;;;;15.10;12.10;;;15.50;99.90;;;16.04;54.56;102511.72;4936762;28;99064;-42
2021/11/19 06:37:30;;;;;;;15.00;12.27;;;15.60;99.90;;;15.98;55.43;102517.25;4932468;28;97002;-42
2021/11/19 06:39:56;;;;;;;16.47;14.33;;;15.50;99.90;;;16.06;54.59;102515.25;4935886;28;97591;-46
2021/11/19 06:42:22;;;;;;;7.83;6.27;;;15.60;99.90;;;16.11;54.32;102513.31;4943951;28;99733;-44
2021/11/19 06:44:48;;;;;;;14.40;12.47;;;15.70;99.90;;;16.04;56.27;102517.06;4933899;28;98431;-44
2021/11/19 06:47:16;;;;;;;15.73;14.00;;;15.60;99.90;;;16.12;54.06;102520.38;4936544;28;97308;-43
2021/11/19 06:49:43;;;;;;;11.67;10.53;;;15.60;99.90;;;16.21;54.33;102514.78;4951051;28;100523;-46
2021/11/19 06:52:09;;;;;;;16.97;14.00;;;15.80;99.90;;;16.15;55.72;102525.59;4954483;28;99650;-45
2021/11/19 06:54:37;;;;;;;15.20;12.90;;;15.70;99.90;;;16.21;54.75;102530.78;4929725;28;97159;-43
2021/11/19 06:57:03;;;;;;;5.13;4.63;;;15.80;99.90;;;16.23;53.98;102534.25;4934525;28;97163;-45
2021/11/19 06:59:29;;;;;;;9.87;8.87;;;15.80;99.90;;;16.23;54.11;102534.25;4929718;28;99712;-43
2021/11/19 07:01:55;;;;;;;8.93;7.87;;;15.70;99.90;;;16.24;53.93;102535.13;4931080;28;96938;-42
2021/11/19 07:04:21;;;;;;;8.60;7.33;;;15.70;99.90;;;16.23;54.13;102528.94;4931734;28;99810;-43
2021/11/19 07:06:47;;;;;;;15.90;13.13;;;15.70;99.90;;;16.25;54.08;102543.06;4921002;28;102624;-49
2021/11/19 07:09:17;;;;;;;10.43;8.97;;;15.80;99.90;;;16.27;54.10;102551.00;4931389;28;97613;-48
2021/11/19 07:11:44;;;;;;;6.53;5.63;;;15.80;99.90;;;16.25;53.87;102545.72;4936119;28;98253;-46
2021/11/19 07:14:11;;;;;;;14.97;13.43;;;15.70;99.90;;;16.26;54.16;102544.81;4933960;28;98674;-44
2021/11/19 07:16:37;;;;;;;15.57;12.83;;;15.80;99.90;;;16.23;55.54;102547.56;4931703;28;100580;-47
2021/11/19 07:19:06;;;;;;;13.10;10.57;;;15.70;99.90;;;16.22;54.29;102548.50;4939851;28;97769;-43
2021/11/19 07:21:32;;;;;;;12.67;11.37;;;15.70;99.90;;;16.20;54.67;102560.97;4939887;28;98195;-48
2021/11/19 07:24:00;;;;;;;14.80;13.20;;;15.70;99.90;;;16.13;55.63;102564.72;4952678;28;98300;-43
2021/11/19 07:26:28;;;;;;;17.70;14.23;;;15.70;99.90;;;16.15;55.56;102564.69;4929486;28;97189;-48
2021/11/19 07:28:56;;;;;;;15.37;13.73;;;15.70;99.90;;;16.14;55.58;102553.16;4936669;28;98878;-43
2021/11/19 07:31:22;;;;;;;15.43;13.73;;;15.70;99.90;;;16.17;54.70;102557.50;4931821;28;97303;-43
2021/11/19 07:33:48;;;;;;;6.80;6.13;;;15.70;99.90;;;16.28;53.71;102564.28;4933114;28;98603;-42
2021/11/19 07:36:17;;;;;;;15.17;12.97;;;15.80;99.90;;;16.23;55.29;102566.22;4912331;28;98464;-48
2021/11/19 07:38:45;;;;;;;11.67;10.47;;;15.80;99.90;;;16.31;53.90;102558.84;4911903;28;97536;-43
2021/11/19 07:41:15;;;;;;;10.13;8.10;;;15.90;99.90;;;16.32;54.09;102555.25;4913589;28;98127;-48
2021/11/19 07:43:41;;;;;;;15.73;13.07;;;15.90;99.90;;;16.31;55.10;102563.31;4893602;28;98344;-47
2021/11/19 07:46:10;;;;;;;7.27;6.53;;;15.80;99.90;;;16.28;54.59;102564.28;4913455;28;98226;-47
2021/11/19 07:48:38;;;;;;;9.10;8.20;;;15.80;99.90;;;16.27;54.25;102569.66;4907103;28;99918;-44
2021/11/19 07:51:14;;;;;;;13.43;12.10;;;15.70;99.90;;;16.25;55.76;102569.69;4916315;28;98170;-46
2021/11/19 07:53:40;;;;;;;15.57;12.53;;;15.80;99.90;;;16.25;54.11;102568.81;4909381;28;97943;-48
2021/11/19 07:56:09;;;;;;;14.10;12.63;;;15.70;99.90;;;16.37;53.86;102568.47;4915003;28;101405;-43
2021/11/19 07:58:36;;;;;;;10.53;9.47;;;16.00;99.90;;;16.49;53.38;102573.44;4910335;28;98465;-42
2021/11/19 08:01:03;;;;;;;14.10;12.67;;;16.20;99.90;;;16.45;54.57;102570.88;4914368;28;100246;-51
2021/11/19 08:03:29;;;;;;;14.93;13.37;;;16.20;99.90;;;16.41;55.67;102579.91;4923446;28;98459;-48
2021/11/19 08:06:00;;;;;;;3.70;3.10;;;16.10;99.90;;;16.39;54.16;102571.09;4915471;28;97879;-47
2021/11/19 08:08:29;;;;;;;9.07;8.17;;;16.00;99.90;;;16.34;55.45;102574.72;4908789;28;98800;-49
2021/11/19 08:10:55;;;;;;;6.90;5.97;;;16.00;99.90;;;16.36;54.01;102570.25;4927469;28;98317;-47
2021/11/19 08:13:22;;;;;;;9.63;8.70;;;15.90;99.90;;;16.39;53.76;102565.75;4910235;28;98863;-43
2021/11/19 08:15:48;;;;;;;13.83;11.77;;;15.90;99.90;;;16.36;54.51;102567.59;4908010;28;96727;-47
2021/11/19 08:18:41;;;;;;;10.83;9.17;;;16.00;99.90;;;16.40;54.48;102578.16;4906046;28;97677;-45
2021/11/19 08:21:07;;;;;;;8.47;6.97;;;16.00;99.90;;;16.37;53.66;102573.81;4907733;28;99215;-47
2021/11/19 08:23:46;;;;;;;14.60;13.17;;;16.00;99.90;;;16.36;55.02;102572.94;4911899;28;97272;-46
2021/11/19 08:26:21;;;;;;;10.77;9.53;;;15.90;99.90;;;16.41;53.60;102569.25;4906571;28;103838;-49
2021/11/19 08:28:48;;;;;;;7.63;6.87;;;16.00;99.90;;;16.39;53.83;102566.63;4921267;28;104271;-50
2021/11/19 08:31:18;;;;;;;3.17;2.87;;;15.90;99.90;;;16.39;53.93;102571.09;4909868;28;98512;-43
2021/11/19 08:33:44;;;;;;;14.33;12.83;;;15.90;99.90;;;16.30;55.24;102565.09;4908335;28;98633;-44
2021/11/19 08:36:11;;;;;;;14.17;12.67;;;15.80;99.90;;;16.29;54.75;102570.47;4909383;28;97633;-43
2021/11/19 08:38:41;;;;;;;14.73;13.00;;;15.80;99.90;;;16.20;56.16;102571.63;4920601;28;102727;-44
2021/11/19 08:41:08;;;;;;;5.80;4.73;;;15.70;99.90;;;16.25;54.23;102567.03;4908613;28;99285;-43
2021/11/19 08:43:41;;;;;;;14.57;12.43;;;15.70;99.90;;;16.17;55.56;102566.38;4907921;28;97649;-46
2021/11/19 08:46:18;;;;;;;15.40;12.17;;;15.70;99.90;;;16.22;54.42;102561.81;4898063;28;98215;-48
2021/11/19 08:48:49;;;;;;;14.03;12.53;;;15.70;99.90;;;16.24;55.81;102567.09;4905676;28;103412;-49
2021/11/19 08:51:22;;;;;;;6.80;6.10;;;15.80;99.90;;;15.99;55.76;102561.59;4909809;28;99829;-49
2021/11/19 08:53:52;;;;;;;5.67;5.10;;;15.50;99.90;;;16.07;55.15;102562.25;4907385;28;97927;-45
2021/11/19 08:56:19;;;;;;;14.50;12.70;;;15.60;99.90;;;16.08;56.15;102571.97;4911458;28;99247;-44
2021/11/19 08:58:46;;;;;;;14.17;12.70;;;15.60;99.90;;;16.07;57.35;102567.56;4910613;28;98595;-46
2021/11/19 09:01:16;;;;;;;14.10;12.63;;;15.60;99.90;;;16.03;56.44;102565.88;4911337;28;101381;-50
2021/11/19 09:03:43;;;;;;;14.13;12.60;;;15.60;99.90;;;16.07;55.71;102564.91;4907318;28;99329;-42
2021/11/19 09:06:13;;;;;;;14.03;12.63;;;15.60;99.90;;;16.08;55.66;102564.00;4928016;28;97227;-46
2021/11/19 09:08:40;;;;;;;14.23;12.37;;;15.60;99.90;;;16.09;57.35;102562.19;4907100;28;105672;-45
2021/11/19 09:11:09;;;;;;;14.77;13.27;;;15.60;99.90;;;16.08;58.27;102571.97;4927410;28;98163;-46
2021/11/19 09:13:36;;;;;;;15.03;12.80;;;15.60;99.90;;;15.96;58.62;102573.19;4924246;28;98818;-45
2021/11/19 09:16:06;;;;;;;13.63;12.33;;;15.50;99.90;;;16.04;55.41;102570.28;4910276;28;98585;-47
2021/11/19 09:19:10;;;;;;;16.17;12.77;;;15.60;99.90;;;16.06;56.06;102568.50;4904811;28;100331;-52
2021/11/19 09:21:48;;;;;;;14.30;12.57;;;15.60;99.90;;;16.12;55.10;102570.09;4906685;28;98428;-42
2021/11/19 09:24:25;;;;;;;9.97;8.90;;;15.70;99.90;;;16.26;54.63;102574.09;4907629;28;97104;-44
2021/11/19 09:27:18;;;;;;;13.83;12.47;;;15.90;99.90;;;16.33;54.29;102566.78;4910353;28;98556;-45
2021/11/19 09:29:52;;;;;;;13.23;11.23;;;16.00;99.90;;;16.46;54.00;102573.50;4778676;28;101843;-48
2021/11/19 09:32:22;;;;;;;14.37;12.13;;;16.20;99.90;;;16.49;53.88;102575.19;4896017;28;99464;-47
2021/11/19 09:34:52;;;;;;;12.93;11.53;;;16.20;99.90;;;16.56;53.73;102584.75;4922629;28;97825;-48
2021/11/19 09:37:19;;;;;;;13.37;10.97;;;16.30;99.90;;;16.57;53.95;102586.50;4912127;28;98573;-42
2021/11/19 09:39:48;;;;;;;11.80;10.70;;;16.40;99.90;;;16.70;53.32;102582.59;4914090;28;101618;-46
2021/11/19 09:42:31;;;;;;;10.47;9.40;;;16.60;99.90;;;16.81;53.12;102579.59;4903516;28;101012;-43
2021/11/19 09:45:51;;;;;;;11.73;10.53;;;16.70;99.90;;;16.82;52.97;102587.53;4911591;28;98498;-49
2021/11/19 09:49:33;;;;;;;11.03;9.93;;;16.70;99.90;;;16.94;52.42;102586.28;4883775;28;98424;-44
2021/11/19 09:53:16;;;;;;;9.03;8.10;;;16.80;99.90;;;16.99;53.41;102583.47;4865635;28;104599;-45
2021/11/19 09:56:15;;;;;;;6.90;5.40;;;16.90;99.90;;;17.01;53.52;102592.28;4837540;28;102392;-48
2021/11/19 09:58:55;;;;;;;12.40;11.10;;;17.00;99.90;;;16.78;56.60;102591.22;4887308;28;99774;-48
2021/11/19 10:01:48;;;;;;;11.33;8.80;;;16.70;99.90;;;16.90;52.66;102590.81;4900179;28;99431;-47
2021/11/19 10:05:10;;;;;;;10.33;9.27;;;16.70;99.90;;;16.71;55.13;102591.44;4904863;28;98396;-45
2021/11/19 10:07:59;;;;;;;11.10;10.00;;;16.50;99.90;;;16.68;53.35;102589.75;4909955;28;101560;-46
2021/11/19 10:11:17;;;;;;;8.97;7.67;;;16.40;99.90;;;16.68;54.11;102589.75;4920355;28;98809;-43
2021/11/19 10:14:17;;;;;;;12.33;11.13;;;16.40;99.90;;;16.59;54.27;102593.53;4913158;28;98690;-46
2021/11/19 10:17:04;;;;;;;12.93;11.63;;;16.20;99.90;;;16.46;55.49;102585.94;4937147;28;103961;-45
2021/11/19 10:19:36;;;;;;;11.90;10.67;;;16.10;99.90;;;16.48;53.97;102589.44;4921183;28;97079;-42
2021/11/19 10:22:34;;;;;;;10.83;9.73;;;16.10;99.90;;;16.57;54.63;102595.38;4923840;28;97171;-48
2021/11/19 10:25:35;;;;;;;14.87;11.03;;;16.20;99.90;;;16.53;54.15;102584.88;4927576;28;97311;-45